sensor_id;sensor_type;location;lat;lon;timestamp;P1;durP1;ratioP1;P2;durP2;ratioP2
8319;SDS011;4197;42.130;24.746;2023-04-24T00:00:03;11.40;;;8.70;;
8319;SDS011;4197;42.130;24.746;2023-04-24T00:02:32;14.23;;;8.03;;
8319;SDS011;4197;42.130;24.746;2023-04-24T00:05:01;10.00;;;8.10;;
8319;SDS011;4197;42.130;24.746;2023-04-24T00:07:30;9.87;;;7.93;;
8319;SDS011;4197;42.130;24.746;2023-04-24T00:09:58;13.73;;;8.03;;
8319;SDS011;4197;42.130;24.746;2023-04-24T00:12:26;12.53;;;8.17;;
8319;SDS011;4197;42.130;24.746;2023-04-24T00:14:56;13.83;;;7.83;;
8319;SDS011;4197;42.130;24.746;2023-04-24T00:17:24;11.70;;;8.13;;
8319;SDS011;4197;42.130;24.746;2023-04-24T00:19:52;11.87;;;7.93;;
8319;SDS011;4197;42.130;24.746;2023-04-24T00:22:24;12.30;;;8.23;;
8319;SDS011;4197;42.130;24.746;2023-04-24T00:24:53;11.50;;;7.87;;
8319;SDS011;4197;42.130;24.746;2023-04-24T00:27:21;15.40;;;8.30;;
8319;SDS011;4197;42.130;24.746;2023-04-24T00:29:50;10.27;;;7.80;;
8319;SDS011;4197;42.130;24.746;2023-04-24T00:32:19;10.57;;;8.13;;
8319;SDS011;4197;42.130;24.746;2023-04-24T00:34:48;13.70;;;8.60;;
8319;SDS011;4197;42.130;24.746;2023-04-24T00:37:16;11.47;;;7.93;;
8319;SDS011;4197;42.130;24.746;2023-04-24T00:39:44;11.60;;;8.40;;
8319;SDS011;4197;42.130;24.746;2023-04-24T00:42:12;13.43;;;8.27;;
8319;SDS011;4197;42.130;24.746;2023-04-24T00:44:40;13.60;;;8.80;;
8319;SDS011;4197;42.130;24.746;2023-04-24T00:47:08;11.43;;;7.93;;
8319;SDS011;4197;42.130;24.746;2023-04-24T00:49:40;13.37;;;8.70;;
8319;SDS011;4197;42.130;24.746;2023-04-24T00:52:08;11.70;;;8.40;;
8319;SDS011;4197;42.130;24.746;2023-04-24T00:54:37;13.23;;;8.27;;
8319;SDS011;4197;42.130;24.746;2023-04-24T00:57:05;14.43;;;8.57;;
8319;SDS011;4197;42.130;24.746;2023-04-24T00:59:33;14.07;;;8.33;;
8319;SDS011;4197;42.130;24.746;2023-04-24T01:02:02;11.83;;;7.90;;
8319;SDS011;4197;42.130;24.746;2023-04-24T01:04:32;12.63;;;8.00;;
8319;SDS011;4197;42.130;24.746;2023-04-24T01:07:02;11.77;;;7.40;;
8319;SDS011;4197;42.130;24.746;2023-04-24T01:09:31;15.40;;;8.13;;
8319;SDS011;4197;42.130;24.746;2023-04-24T01:11:59;16.73;;;8.63;;
8319;SDS011;4197;42.130;24.746;2023-04-24T01:14:28;13.97;;;9.27;;
8319;SDS011;4197;42.130;24.746;2023-04-24T01:16:58;8.87;;;7.97;;
8319;SDS011;4197;42.130;24.746;2023-04-24T01:19:26;9.70;;;8.60;;
8319;SDS011;4197;42.130;24.746;2023-04-24T01:21:56;9.43;;;8.40;;
8319;SDS011;4197;42.130;24.746;2023-04-24T01:24:28;15.87;;;9.83;;
8319;SDS011;4197;42.130;24.746;2023-04-24T01:26:56;11.57;;;8.63;;
8319;SDS011;4197;42.130;24.746;2023-04-24T01:29:24;13.80;;;9.50;;
8319;SDS011;4197;42.130;24.746;2023-04-24T01:31:53;17.60;;;10.80;;
8319;SDS011;4197;42.130;24.746;2023-04-24T01:34:24;14.83;;;10.77;;
8319;SDS011;4197;42.130;24.746;2023-04-24T01:36:52;15.33;;;10.33;;
8319;SDS011;4197;42.130;24.746;2023-04-24T01:39:22;14.90;;;11.03;;
8319;SDS011;4197;42.130;24.746;2023-04-24T01:41:53;13.27;;;10.87;;
8319;SDS011;4197;42.130;24.746;2023-04-24T01:44:21;16.17;;;11.97;;
8319;SDS011;4197;42.130;24.746;2023-04-24T01:46:50;13.50;;;10.83;;
8319;SDS011;4197;42.130;24.746;2023-04-24T01:49:20;14.37;;;10.73;;
8319;SDS011;4197;42.130;24.746;2023-04-24T01:51:48;16.13;;;12.07;;
8319;SDS011;4197;42.130;24.746;2023-04-24T01:54:17;17.77;;;11.37;;
8319;SDS011;4197;42.130;24.746;2023-04-24T01:56:45;18.10;;;12.20;;
8319;SDS011;4197;42.130;24.746;2023-04-24T01:59:15;15.47;;;11.70;;
8319;SDS011;4197;42.130;24.746;2023-04-24T02:01:44;21.10;;;12.43;;
8319;SDS011;4197;42.130;24.746;2023-04-24T02:04:12;15.77;;;11.47;;
8319;SDS011;4197;42.130;24.746;2023-04-24T02:06:41;20.77;;;12.33;;
8319;SDS011;4197;42.130;24.746;2023-04-24T02:09:10;15.90;;;11.70;;
8319;SDS011;4197;42.130;24.746;2023-04-24T02:11:38;15.10;;;12.00;;
8319;SDS011;4197;42.130;24.746;2023-04-24T02:14:06;21.17;;;12.03;;
8319;SDS011;4197;42.130;24.746;2023-04-24T02:16:36;17.20;;;11.47;;
8319;SDS011;4197;42.130;24.746;2023-04-24T02:19:04;19.70;;;11.70;;
8319;SDS011;4197;42.130;24.746;2023-04-24T02:21:32;19.13;;;11.40;;
8319;SDS011;4197;42.130;24.746;2023-04-24T02:24:01;13.73;;;11.10;;
8319;SDS011;4197;42.130;24.746;2023-04-24T02:26:30;18.07;;;11.67;;
8319;SDS011;4197;42.130;24.746;2023-04-24T02:28:59;17.83;;;11.27;;
8319;SDS011;4197;42.130;24.746;2023-04-24T02:31:28;19.40;;;11.93;;
8319;SDS011;4197;42.130;24.746;2023-04-24T02:33:57;14.00;;;11.40;;
8319;SDS011;4197;42.130;24.746;2023-04-24T02:36:25;19.00;;;11.87;;
8319;SDS011;4197;42.130;24.746;2023-04-24T02:38:53;13.73;;;11.00;;
8319;SDS011;4197;42.130;24.746;2023-04-24T02:41:22;17.30;;;12.20;;
8319;SDS011;4197;42.130;24.746;2023-04-24T02:43:50;19.87;;;12.30;;
8319;SDS011;4197;42.130;24.746;2023-04-24T02:46:18;24.03;;;11.97;;
8319;SDS011;4197;42.130;24.746;2023-04-24T02:48:46;17.20;;;11.13;;
8319;SDS011;4197;42.130;24.746;2023-04-24T02:51:15;19.70;;;11.03;;
8319;SDS011;4197;42.130;24.746;2023-04-24T02:53:43;17.73;;;11.77;;
8319;SDS011;4197;42.130;24.746;2023-04-24T02:56:12;16.73;;;12.00;;
8319;SDS011;4197;42.130;24.746;2023-04-24T02:58:40;14.27;;;11.97;;
8319;SDS011;4197;42.130;24.746;2023-04-24T03:01:08;19.27;;;12.47;;
8319;SDS011;4197;42.130;24.746;2023-04-24T03:03:37;23.57;;;12.40;;
8319;SDS011;4197;42.130;24.746;2023-04-24T03:06:06;28.07;;;12.43;;
8319;SDS011;4197;42.130;24.746;2023-04-24T03:08:35;21.30;;;11.93;;
8319;SDS011;4197;42.130;24.746;2023-04-24T03:11:04;15.80;;;12.17;;
8319;SDS011;4197;42.130;24.746;2023-04-24T03:13:32;14.80;;;11.33;;
8319;SDS011;4197;42.130;24.746;2023-04-24T03:16:00;22.03;;;12.23;;
8319;SDS011;4197;42.130;24.746;2023-04-24T03:18:28;24.00;;;13.10;;
8319;SDS011;4197;42.130;24.746;2023-04-24T03:20:57;14.53;;;10.83;;
8319;SDS011;4197;42.130;24.746;2023-04-24T03:23:29;14.70;;;11.30;;
8319;SDS011;4197;42.130;24.746;2023-04-24T03:26:00;16.93;;;11.80;;
8319;SDS011;4197;42.130;24.746;2023-04-24T03:28:29;24.67;;;13.53;;
8319;SDS011;4197;42.130;24.746;2023-04-24T03:30:57;23.00;;;13.43;;
8319;SDS011;4197;42.130;24.746;2023-04-24T03:33:26;23.87;;;13.03;;
8319;SDS011;4197;42.130;24.746;2023-04-24T03:35:55;21.13;;;13.40;;
8319;SDS011;4197;42.130;24.746;2023-04-24T03:38:23;20.60;;;13.37;;
8319;SDS011;4197;42.130;24.746;2023-04-24T03:40:51;23.07;;;13.90;;
8319;SDS011;4197;42.130;24.746;2023-04-24T03:43:21;20.90;;;14.33;;
8319;SDS011;4197;42.130;24.746;2023-04-24T03:45:49;29.70;;;14.90;;
8319;SDS011;4197;42.130;24.746;2023-04-24T03:48:18;21.70;;;14.47;;
8319;SDS011;4197;42.130;24.746;2023-04-24T03:50:46;21.10;;;13.90;;
8319;SDS011;4197;42.130;24.746;2023-04-24T03:53:16;25.40;;;14.80;;
8319;SDS011;4197;42.130;24.746;2023-04-24T03:55:44;25.87;;;14.20;;
8319;SDS011;4197;42.130;24.746;2023-04-24T03:58:12;33.90;;;15.50;;
8319;SDS011;4197;42.130;24.746;2023-04-24T04:00:42;30.90;;;15.07;;
8319;SDS011;4197;42.130;24.746;2023-04-24T04:03:10;21.27;;;14.17;;
8319;SDS011;4197;42.130;24.746;2023-04-24T04:05:40;21.47;;;14.87;;
8319;SDS011;4197;42.130;24.746;2023-04-24T04:08:08;22.13;;;13.17;;
8319;SDS011;4197;42.130;24.746;2023-04-24T04:10:36;23.37;;;13.87;;
8319;SDS011;4197;42.130;24.746;2023-04-24T04:13:04;31.40;;;14.43;;
8319;SDS011;4197;42.130;24.746;2023-04-24T04:15:33;24.37;;;14.13;;
8319;SDS011;4197;42.130;24.746;2023-04-24T04:18:03;29.23;;;13.90;;
8319;SDS011;4197;42.130;24.746;2023-04-24T04:20:32;29.13;;;13.93;;
8319;SDS011;4197;42.130;24.746;2023-04-24T04:23:00;35.97;;;14.43;;
8319;SDS011;4197;42.130;24.746;2023-04-24T04:25:28;18.87;;;13.13;;
8319;SDS011;4197;42.130;24.746;2023-04-24T04:27:56;20.77;;;13.27;;
8319;SDS011;4197;42.130;24.746;2023-04-24T04:30:26;22.40;;;12.13;;
8319;SDS011;4197;42.130;24.746;2023-04-24T04:32:55;19.60;;;12.50;;
8319;SDS011;4197;42.130;24.746;2023-04-24T04:35:25;17.97;;;12.63;;
8319;SDS011;4197;42.130;24.746;2023-04-24T04:37:54;22.53;;;12.70;;
8319;SDS011;4197;42.130;24.746;2023-04-24T04:40:22;16.00;;;12.00;;
8319;SDS011;4197;42.130;24.746;2023-04-24T04:42:50;16.43;;;12.40;;
8319;SDS011;4197;42.130;24.746;2023-04-24T04:45:19;22.03;;;13.30;;
8319;SDS011;4197;42.130;24.746;2023-04-24T04:47:48;22.33;;;12.23;;
8319;SDS011;4197;42.130;24.746;2023-04-24T04:50:35;16.30;;;11.80;;
8319;SDS011;4197;42.130;24.746;2023-04-24T04:53:03;15.63;;;11.70;;
8319;SDS011;4197;42.130;24.746;2023-04-24T04:55:32;21.97;;;11.87;;
8319;SDS011;4197;42.130;24.746;2023-04-24T04:58:00;21.97;;;12.67;;
8319;SDS011;4197;42.130;24.746;2023-04-24T05:00:28;27.07;;;12.60;;
8319;SDS011;4197;42.130;24.746;2023-04-24T05:03:01;26.63;;;12.70;;
8319;SDS011;4197;42.130;24.746;2023-04-24T05:05:47;22.60;;;11.97;;
8319;SDS011;4197;42.130;24.746;2023-04-24T05:08:15;25.20;;;12.40;;
8319;SDS011;4197;42.130;24.746;2023-04-24T05:10:52;19.63;;;12.67;;
8319;SDS011;4197;42.130;24.746;2023-04-24T05:13:21;20.80;;;11.83;;
8319;SDS011;4197;42.130;24.746;2023-04-24T05:16:04;19.03;;;12.47;;
8319;SDS011;4197;42.130;24.746;2023-04-24T05:18:32;20.93;;;11.90;;
8319;SDS011;4197;42.130;24.746;2023-04-24T05:21:02;23.57;;;12.63;;
8319;SDS011;4197;42.130;24.746;2023-04-24T05:23:30;18.70;;;11.80;;
8319;SDS011;4197;42.130;24.746;2023-04-24T05:25:59;19.10;;;12.83;;
8319;SDS011;4197;42.130;24.746;2023-04-24T05:28:27;104.10;;;18.87;;
8319;SDS011;4197;42.130;24.746;2023-04-24T05:30:55;22.17;;;12.37;;
8319;SDS011;4197;42.130;24.746;2023-04-24T05:33:23;17.60;;;12.20;;
8319;SDS011;4197;42.130;24.746;2023-04-24T05:35:51;19.33;;;11.30;;
8319;SDS011;4197;42.130;24.746;2023-04-24T05:38:22;16.37;;;11.30;;
8319;SDS011;4197;42.130;24.746;2023-04-24T05:40:51;18.10;;;11.33;;
8319;SDS011;4197;42.130;24.746;2023-04-24T05:43:19;19.83;;;10.73;;
8319;SDS011;4197;42.130;24.746;2023-04-24T05:45:47;18.70;;;11.70;;
8319;SDS011;4197;42.130;24.746;2023-04-24T05:48:15;20.30;;;10.73;;
8319;SDS011;4197;42.130;24.746;2023-04-24T05:50:44;16.63;;;10.87;;
8319;SDS011;4197;42.130;24.746;2023-04-24T05:53:14;16.80;;;9.23;;
8319;SDS011;4197;42.130;24.746;2023-04-24T05:55:44;18.10;;;10.33;;
8319;SDS011;4197;42.130;24.746;2023-04-24T05:58:13;17.90;;;10.60;;
8319;SDS011;4197;42.130;24.746;2023-04-24T06:00:42;43.30;;;12.40;;
8319;SDS011;4197;42.130;24.746;2023-04-24T06:03:12;18.90;;;11.13;;
8319;SDS011;4197;42.130;24.746;2023-04-24T06:05:41;20.80;;;11.23;;
8319;SDS011;4197;42.130;24.746;2023-04-24T06:08:09;37.50;;;11.27;;
8319;SDS011;4197;42.130;24.746;2023-04-24T06:10:37;34.37;;;10.70;;
8319;SDS011;4197;42.130;24.746;2023-04-24T06:13:08;26.57;;;10.07;;
8319;SDS011;4197;42.130;24.746;2023-04-24T06:15:36;18.67;;;11.77;;
8319;SDS011;4197;42.130;24.746;2023-04-24T06:18:04;14.60;;;10.07;;
8319;SDS011;4197;42.130;24.746;2023-04-24T06:20:32;29.23;;;11.63;;
8319;SDS011;4197;42.130;24.746;2023-04-24T06:23:00;24.90;;;9.97;;
8319;SDS011;4197;42.130;24.746;2023-04-24T06:25:29;25.37;;;10.10;;
8319;SDS011;4197;42.130;24.746;2023-04-24T06:27:57;17.13;;;10.17;;
8319;SDS011;4197;42.130;24.746;2023-04-24T06:30:27;14.60;;;9.67;;
8319;SDS011;4197;42.130;24.746;2023-04-24T06:32:55;15.30;;;9.57;;
8319;SDS011;4197;42.130;24.746;2023-04-24T06:35:35;40.83;;;11.23;;
8319;SDS011;4197;42.130;24.746;2023-04-24T06:38:04;21.57;;;9.90;;
8319;SDS011;4197;42.130;24.746;2023-04-24T06:40:33;24.57;;;10.17;;
8319;SDS011;4197;42.130;24.746;2023-04-24T06:43:01;14.70;;;9.70;;
8319;SDS011;4197;42.130;24.746;2023-04-24T06:45:30;15.70;;;9.03;;
8319;SDS011;4197;42.130;24.746;2023-04-24T06:47:59;16.10;;;10.43;;
8319;SDS011;4197;42.130;24.746;2023-04-24T06:50:27;16.17;;;9.50;;
8319;SDS011;4197;42.130;24.746;2023-04-24T06:52:55;14.53;;;9.70;;
8319;SDS011;4197;42.130;24.746;2023-04-24T06:55:23;13.43;;;8.97;;
8319;SDS011;4197;42.130;24.746;2023-04-24T06:57:51;21.63;;;9.57;;
8319;SDS011;4197;42.130;24.746;2023-04-24T07:00:20;17.33;;;9.07;;
8319;SDS011;4197;42.130;24.746;2023-04-24T07:02:52;14.53;;;9.80;;
8319;SDS011;4197;42.130;24.746;2023-04-24T07:05:20;21.27;;;10.13;;
8319;SDS011;4197;42.130;24.746;2023-04-24T07:07:49;17.17;;;9.13;;
8319;SDS011;4197;42.130;24.746;2023-04-24T07:10:18;50.27;;;13.20;;
8319;SDS011;4197;42.130;24.746;2023-04-24T07:12:47;15.97;;;10.17;;
8319;SDS011;4197;42.130;24.746;2023-04-24T07:15:16;27.37;;;10.47;;
8319;SDS011;4197;42.130;24.746;2023-04-24T07:17:44;21.73;;;9.07;;
8319;SDS011;4197;42.130;24.746;2023-04-24T07:20:21;18.13;;;9.67;;
8319;SDS011;4197;42.130;24.746;2023-04-24T07:22:49;16.70;;;9.13;;
8319;SDS011;4197;42.130;24.746;2023-04-24T07:25:20;11.87;;;9.30;;
8319;SDS011;4197;42.130;24.746;2023-04-24T07:27:48;13.33;;;8.73;;
8319;SDS011;4197;42.130;24.746;2023-04-24T07:30:16;10.53;;;8.53;;
8319;SDS011;4197;42.130;24.746;2023-04-24T07:32:45;11.87;;;8.53;;
8319;SDS011;4197;42.130;24.746;2023-04-24T07:35:14;17.00;;;8.68;;
8319;SDS011;4197;42.130;24.746;2023-04-24T07:37:43;13.52;;;7.97;;
8319;SDS011;4197;42.130;24.746;2023-04-24T07:40:12;11.35;;;7.72;;
8319;SDS011;4197;42.130;24.746;2023-04-24T07:42:40;9.30;;;7.70;;
8319;SDS011;4197;42.130;24.746;2023-04-24T07:45:10;10.38;;;8.20;;
8319;SDS011;4197;42.130;24.746;2023-04-24T07:47:38;17.20;;;8.55;;
8319;SDS011;4197;42.130;24.746;2023-04-24T07:50:07;24.20;;;9.75;;
8319;SDS011;4197;42.130;24.746;2023-04-24T07:52:37;15.93;;;9.90;;
8319;SDS011;4197;42.130;24.746;2023-04-24T07:55:05;12.23;;;8.68;;
8319;SDS011;4197;42.130;24.746;2023-04-24T07:57:34;18.35;;;8.70;;
8319;SDS011;4197;42.130;24.746;2023-04-24T08:00:04;22.55;;;10.95;;
8319;SDS011;4197;42.130;24.746;2023-04-24T08:02:33;12.85;;;9.65;;
8319;SDS011;4197;42.130;24.746;2023-04-24T08:05:02;24.55;;;10.57;;
8319;SDS011;4197;42.130;24.746;2023-04-24T08:07:31;17.85;;;10.20;;
8319;SDS011;4197;42.130;24.746;2023-04-24T08:10:00;15.02;;;9.18;;
8319;SDS011;4197;42.130;24.746;2023-04-24T08:12:29;22.10;;;10.30;;
8319;SDS011;4197;42.130;24.746;2023-04-24T08:14:57;54.92;;;16.02;;
8319;SDS011;4197;42.130;24.746;2023-04-24T08:17:25;14.18;;;9.40;;
8319;SDS011;4197;42.130;24.746;2023-04-24T08:19:53;12.73;;;8.82;;
8319;SDS011;4197;42.130;24.746;2023-04-24T08:22:28;21.27;;;10.77;;
8319;SDS011;4197;42.130;24.746;2023-04-24T08:24:57;16.75;;;10.18;;
8319;SDS011;4197;42.130;24.746;2023-04-24T08:27:28;13.63;;;9.23;;
8319;SDS011;4197;42.130;24.746;2023-04-24T08:29:56;14.90;;;8.85;;
8319;SDS011;4197;42.130;24.746;2023-04-24T08:32:25;38.75;;;12.98;;
8319;SDS011;4197;42.130;24.746;2023-04-24T08:34:56;19.35;;;10.48;;
8319;SDS011;4197;42.130;24.746;2023-04-24T08:37:25;19.50;;;9.05;;
8319;SDS011;4197;42.130;24.746;2023-04-24T08:39:54;12.73;;;9.02;;
8319;SDS011;4197;42.130;24.746;2023-04-24T08:42:23;13.38;;;8.90;;
8319;SDS011;4197;42.130;24.746;2023-04-24T08:44:52;12.70;;;9.32;;
8319;SDS011;4197;42.130;24.746;2023-04-24T08:47:23;16.77;;;9.43;;
8319;SDS011;4197;42.130;24.746;2023-04-24T08:49:53;13.15;;;8.43;;
8319;SDS011;4197;42.130;24.746;2023-04-24T08:52:22;11.98;;;9.30;;
8319;SDS011;4197;42.130;24.746;2023-04-24T08:54:50;12.80;;;8.65;;
8319;SDS011;4197;42.130;24.746;2023-04-24T08:57:21;21.63;;;8.98;;
8319;SDS011;4197;42.130;24.746;2023-04-24T08:59:49;26.52;;;9.73;;
8319;SDS011;4197;42.130;24.746;2023-04-24T09:02:20;15.02;;;8.38;;
8319;SDS011;4197;42.130;24.746;2023-04-24T09:04:49;10.07;;;8.27;;
8319;SDS011;4197;42.130;24.746;2023-04-24T09:07:20;12.38;;;8.02;;
8319;SDS011;4197;42.130;24.746;2023-04-24T09:09:52;15.52;;;7.95;;
8319;SDS011;4197;42.130;24.746;2023-04-24T09:12:22;12.55;;;8.25;;
8319;SDS011;4197;42.130;24.746;2023-04-24T09:14:50;14.63;;;7.95;;
8319;SDS011;4197;42.130;24.746;2023-04-24T09:17:21;13.25;;;8.30;;
8319;SDS011;4197;42.130;24.746;2023-04-24T09:19:53;18.20;;;8.40;;
8319;SDS011;4197;42.130;24.746;2023-04-24T09:22:21;18.02;;;8.27;;
8319;SDS011;4197;42.130;24.746;2023-04-24T09:24:59;13.02;;;8.20;;
8319;SDS011;4197;42.130;24.746;2023-04-24T09:27:29;13.93;;;8.32;;
8319;SDS011;4197;42.130;24.746;2023-04-24T09:29:58;14.20;;;8.40;;
8319;SDS011;4197;42.130;24.746;2023-04-24T09:32:28;11.02;;;7.53;;
8319;SDS011;4197;42.130;24.746;2023-04-24T09:35:08;8.93;;;7.90;;
8319;SDS011;4197;42.130;24.746;2023-04-24T09:37:39;12.57;;;7.55;;
8319;SDS011;4197;42.130;24.746;2023-04-24T09:40:09;7.97;;;7.10;;
8319;SDS011;4197;42.130;24.746;2023-04-24T09:42:40;8.65;;;7.03;;
8319;SDS011;4197;42.130;24.746;2023-04-24T09:45:10;14.80;;;7.15;;
8319;SDS011;4197;42.130;24.746;2023-04-24T09:47:44;17.67;;;7.13;;
8319;SDS011;4197;42.130;24.746;2023-04-24T09:50:13;10.75;;;7.00;;
8319;SDS011;4197;42.130;24.746;2023-04-24T09:52:45;15.73;;;7.38;;
8319;SDS011;4197;42.130;24.746;2023-04-24T09:55:23;22.58;;;7.57;;
8319;SDS011;4197;42.130;24.746;2023-04-24T09:57:52;13.20;;;7.22;;
8319;SDS011;4197;42.130;24.746;2023-04-24T10:00:21;17.33;;;8.02;;
8319;SDS011;4197;42.130;24.746;2023-04-24T10:02:55;10.13;;;7.75;;
8319;SDS011;4197;42.130;24.746;2023-04-24T10:05:25;10.68;;;7.95;;
8319;SDS011;4197;42.130;24.746;2023-04-24T10:07:56;14.43;;;7.45;;
8319;SDS011;4197;42.130;24.746;2023-04-24T10:10:24;12.23;;;8.32;;
8319;SDS011;4197;42.130;24.746;2023-04-24T10:12:54;13.10;;;8.95;;
8319;SDS011;4197;42.130;24.746;2023-04-24T10:15:22;15.98;;;8.73;;
8319;SDS011;4197;42.130;24.746;2023-04-24T10:17:51;9.38;;;7.30;;
8319;SDS011;4197;42.130;24.746;2023-04-24T10:20:24;10.75;;;7.55;;
8319;SDS011;4197;42.130;24.746;2023-04-24T10:22:55;11.85;;;8.43;;
8319;SDS011;4197;42.130;24.746;2023-04-24T10:25:25;15.20;;;9.20;;
8319;SDS011;4197;42.130;24.746;2023-04-24T10:27:54;8.38;;;6.78;;
8319;SDS011;4197;42.130;24.746;2023-04-24T10:30:26;12.13;;;7.50;;
8319;SDS011;4197;42.130;24.746;2023-04-24T10:32:55;8.55;;;7.38;;
8319;SDS011;4197;42.130;24.746;2023-04-24T10:35:25;10.60;;;7.43;;
8319;SDS011;4197;42.130;24.746;2023-04-24T10:37:54;10.63;;;7.80;;
8319;SDS011;4197;42.130;24.746;2023-04-24T10:40:26;16.08;;;7.57;;
8319;SDS011;4197;42.130;24.746;2023-04-24T10:42:57;9.77;;;7.47;;
8319;SDS011;4197;42.130;24.746;2023-04-24T10:45:26;9.43;;;6.63;;
8319;SDS011;4197;42.130;24.746;2023-04-24T10:47:58;11.35;;;7.45;;
8319;SDS011;4197;42.130;24.746;2023-04-24T10:50:43;18.20;;;7.22;;
8319;SDS011;4197;42.130;24.746;2023-04-24T10:53:14;11.50;;;7.68;;
8319;SDS011;4197;42.130;24.746;2023-04-24T10:55:44;19.95;;;8.23;;
8319;SDS011;4197;42.130;24.746;2023-04-24T10:58:14;23.75;;;8.82;;
8319;SDS011;4197;42.130;24.746;2023-04-24T11:00:44;16.35;;;7.32;;
8319;SDS011;4197;42.130;24.746;2023-04-24T11:03:24;27.40;;;8.23;;
8319;SDS011;4197;42.130;24.746;2023-04-24T11:05:58;13.77;;;7.20;;
8319;SDS011;4197;42.130;24.746;2023-04-24T11:08:31;9.50;;;6.90;;
8319;SDS011;4197;42.130;24.746;2023-04-24T11:11:08;10.25;;;6.75;;
8319;SDS011;4197;42.130;24.746;2023-04-24T11:16:35;7.65;;;6.82;;
8319;SDS011;4197;42.130;24.746;2023-04-24T11:19:07;15.80;;;7.25;;
8319;SDS011;4197;42.130;24.746;2023-04-24T11:21:42;7.55;;;6.53;;
8319;SDS011;4197;42.130;24.746;2023-04-24T11:27:05;16.45;;;7.65;;
8319;SDS011;4197;42.130;24.746;2023-04-24T11:29:39;8.40;;;5.97;;
8319;SDS011;4197;42.130;24.746;2023-04-24T11:32:19;12.05;;;6.18;;
8319;SDS011;4197;42.130;24.746;2023-04-24T11:34:53;18.23;;;6.28;;
8319;SDS011;4197;42.130;24.746;2023-04-24T11:37:25;20.92;;;8.38;;
8319;SDS011;4197;42.130;24.746;2023-04-24T11:39:57;22.73;;;6.75;;
8319;SDS011;4197;42.130;24.746;2023-04-24T11:42:27;10.85;;;6.18;;
8319;SDS011;4197;42.130;24.746;2023-04-24T11:44:56;9.63;;;5.95;;
8319;SDS011;4197;42.130;24.746;2023-04-24T11:47:30;50.65;;;9.90;;
8319;SDS011;4197;42.130;24.746;2023-04-24T11:50:00;13.98;;;6.05;;
8319;SDS011;4197;42.130;24.746;2023-04-24T11:52:31;14.93;;;6.32;;
8319;SDS011;4197;42.130;24.746;2023-04-24T11:55:01;13.55;;;6.38;;
8319;SDS011;4197;42.130;24.746;2023-04-24T11:57:30;10.80;;;5.70;;
8319;SDS011;4197;42.130;24.746;2023-04-24T12:00:01;11.65;;;5.70;;
8319;SDS011;4197;42.130;24.746;2023-04-24T12:02:32;10.90;;;6.50;;
8319;SDS011;4197;42.130;24.746;2023-04-24T12:05:03;10.48;;;6.13;;
8319;SDS011;4197;42.130;24.746;2023-04-24T12:07:39;13.75;;;6.25;;
8319;SDS011;4197;42.130;24.746;2023-04-24T12:10:09;10.10;;;6.00;;
8319;SDS011;4197;42.130;24.746;2023-04-24T12:12:38;11.95;;;5.40;;
8319;SDS011;4197;42.130;24.746;2023-04-24T12:15:06;21.67;;;7.10;;
8319;SDS011;4197;42.130;24.746;2023-04-24T12:17:35;7.22;;;6.00;;
8319;SDS011;4197;42.130;24.746;2023-04-24T12:20:08;9.18;;;5.78;;
8319;SDS011;4197;42.130;24.746;2023-04-24T12:22:45;13.30;;;6.28;;
8319;SDS011;4197;42.130;24.746;2023-04-24T12:25:15;6.47;;;5.10;;
8319;SDS011;4197;42.130;24.746;2023-04-24T12:27:45;8.48;;;5.88;;
8319;SDS011;4197;42.130;24.746;2023-04-24T12:30:14;6.57;;;5.82;;
8319;SDS011;4197;42.130;24.746;2023-04-24T12:32:44;16.73;;;6.50;;
8319;SDS011;4197;42.130;24.746;2023-04-24T12:35:18;17.20;;;5.93;;
8319;SDS011;4197;42.130;24.746;2023-04-24T12:37:49;12.30;;;5.80;;
8319;SDS011;4197;42.130;24.746;2023-04-24T12:40:19;7.40;;;5.57;;
8319;SDS011;4197;42.130;24.746;2023-04-24T12:42:48;17.20;;;6.35;;
8319;SDS011;4197;42.130;24.746;2023-04-24T12:45:18;13.73;;;5.22;;
8319;SDS011;4197;42.130;24.746;2023-04-24T12:47:49;13.68;;;5.65;;
8319;SDS011;4197;42.130;24.746;2023-04-24T12:50:18;16.52;;;6.15;;
8319;SDS011;4197;42.130;24.746;2023-04-24T12:52:47;11.45;;;5.65;;
8319;SDS011;4197;42.130;24.746;2023-04-24T12:55:17;14.05;;;6.75;;
8319;SDS011;4197;42.130;24.746;2023-04-24T12:57:45;15.25;;;5.60;;
8319;SDS011;4197;42.130;24.746;2023-04-24T13:00:14;7.95;;;5.57;;
8319;SDS011;4197;42.130;24.746;2023-04-24T13:02:45;7.68;;;5.00;;
8319;SDS011;4197;42.130;24.746;2023-04-24T13:05:14;10.02;;;6.05;;
8319;SDS011;4197;42.130;24.746;2023-04-24T13:07:42;13.75;;;6.20;;
8319;SDS011;4197;42.130;24.746;2023-04-24T13:10:10;14.07;;;5.85;;
8319;SDS011;4197;42.130;24.746;2023-04-24T13:12:41;10.35;;;5.00;;
8319;SDS011;4197;42.130;24.746;2023-04-24T13:15:11;15.50;;;5.35;;
8319;SDS011;4197;42.130;24.746;2023-04-24T13:17:40;9.93;;;5.28;;
8319;SDS011;4197;42.130;24.746;2023-04-24T13:20:08;8.48;;;5.32;;
8319;SDS011;4197;42.130;24.746;2023-04-24T13:22:37;11.10;;;5.38;;
8319;SDS011;4197;42.130;24.746;2023-04-24T13:25:05;10.23;;;5.45;;
8319;SDS011;4197;42.130;24.746;2023-04-24T13:27:35;5.90;;;4.90;;
8319;SDS011;4197;42.130;24.746;2023-04-24T13:30:08;6.82;;;5.05;;
8319;SDS011;4197;42.130;24.746;2023-04-24T13:32:39;6.85;;;6.15;;
8319;SDS011;4197;42.130;24.746;2023-04-24T13:35:08;7.30;;;5.35;;
8319;SDS011;4197;42.130;24.746;2023-04-24T13:37:36;6.28;;;4.93;;
8319;SDS011;4197;42.130;24.746;2023-04-24T13:40:05;8.27;;;5.53;;
8319;SDS011;4197;42.130;24.746;2023-04-24T13:42:34;14.00;;;5.82;;
8319;SDS011;4197;42.130;24.746;2023-04-24T13:45:03;74.03;;;9.05;;
8319;SDS011;4197;42.130;24.746;2023-04-24T13:47:51;7.97;;;5.03;;
8319;SDS011;4197;42.130;24.746;2023-04-24T13:50:27;8.13;;;5.68;;
8319;SDS011;4197;42.130;24.746;2023-04-24T13:52:55;9.63;;;4.80;;
8319;SDS011;4197;42.130;24.746;2023-04-24T13:55:28;6.07;;;4.97;;
8319;SDS011;4197;42.130;24.746;2023-04-24T13:57:58;7.05;;;4.85;;
8319;SDS011;4197;42.130;24.746;2023-04-24T14:00:27;13.18;;;5.70;;
8319;SDS011;4197;42.130;24.746;2023-04-24T14:02:57;6.97;;;4.68;;
8319;SDS011;4197;42.130;24.746;2023-04-24T14:05:26;5.95;;;4.35;;
8319;SDS011;4197;42.130;24.746;2023-04-24T14:07:54;6.93;;;4.57;;
8319;SDS011;4197;42.130;24.746;2023-04-24T14:10:23;6.55;;;4.55;;
8319;SDS011;4197;42.130;24.746;2023-04-24T14:12:51;8.63;;;4.60;;
8319;SDS011;4197;42.130;24.746;2023-04-24T14:15:20;17.00;;;5.45;;
8319;SDS011;4197;42.130;24.746;2023-04-24T14:17:48;7.53;;;4.78;;
8319;SDS011;4197;42.130;24.746;2023-04-24T14:20:19;12.48;;;4.88;;
8319;SDS011;4197;42.130;24.746;2023-04-24T14:22:48;8.55;;;5.20;;
8319;SDS011;4197;42.130;24.746;2023-04-24T14:25:16;34.88;;;6.57;;
8319;SDS011;4197;42.130;24.746;2023-04-24T14:27:45;17.23;;;5.38;;
8319;SDS011;4197;42.130;24.746;2023-04-24T14:30:14;12.30;;;4.63;;
8319;SDS011;4197;42.130;24.746;2023-04-24T14:32:43;10.48;;;4.50;;
8319;SDS011;4197;42.130;24.746;2023-04-24T14:35:13;20.83;;;5.07;;
8319;SDS011;4197;42.130;24.746;2023-04-24T14:37:43;10.13;;;4.90;;
8319;SDS011;4197;42.130;24.746;2023-04-24T14:40:15;8.00;;;4.15;;
8319;SDS011;4197;42.130;24.746;2023-04-24T14:43:03;4.90;;;4.50;;
8319;SDS011;4197;42.130;24.746;2023-04-24T14:45:31;18.48;;;5.25;;
8319;SDS011;4197;42.130;24.746;2023-04-24T14:48:03;5.78;;;4.30;;
8319;SDS011;4197;42.130;24.746;2023-04-24T14:50:31;7.80;;;3.88;;
8319;SDS011;4197;42.130;24.746;2023-04-24T14:53:02;5.55;;;4.32;;
8319;SDS011;4197;42.130;24.746;2023-04-24T14:55:30;7.15;;;4.40;;
8319;SDS011;4197;42.130;24.746;2023-04-24T14:58:00;5.55;;;4.80;;
8319;SDS011;4197;42.130;24.746;2023-04-24T15:00:28;8.88;;;4.90;;
8319;SDS011;4197;42.130;24.746;2023-04-24T15:02:57;10.43;;;4.95;;
8319;SDS011;4197;42.130;24.746;2023-04-24T15:05:26;27.75;;;6.60;;